Huvudsida
METAR-TAF:

METAR-TAF

Flygplatser :

Najran, Saudiarabien

latitud: 17-37N, longitud: 044-25E, höjd: 1212 m

Aktuellt väderrapport

Denna rapport gjordes för 50 minuter sedan, klockan 22:00 UTC
Stilla vind
Temperatur 23°C
Fuktighet 25%
Tryck 1015 hPa
Sikt 10 km eller mer
Inga moln under 1 500 m eller inga cumulonimbus

METAR: OENG 192200Z 00000KT CAVOK 23/02 Q1015 NOSIG

Tid: 01:50 (22:50 UTC)

Väderprognos

Denna rapport gjordes för 11 timmar och 50 minuter sedan, klockan 11:00 UTC
Prognos gäller från 19 kl. 12 UTC till 20 kl. 18 UTC
Vind 14 kt från ost/sydost
Sikt: 7000 m
Blir
från 19 kl. 20 UTC till 19 kl. 22 UTC
Vind 3 kt varierande vindriktning

TAF: OENG 191100Z 1912/2018 12014KT 7000 NSC BECMG 1920/1922 VRB03KT

Aktuella väderrapporter och prognoser från 4000 flygplatser (METAR- och TAF-rapporter).

De tillgängliga stationerna syns som gula och röda prickar på kartan.

För musen över prickarna för att se namnen på stationerna.

Klicka sedan för att få väderrapporter och prognoser.

För att ändra kartan: Klicka på de gröna knapparna med ett svart kors på för att zooma in; den gröna knappen med ett streck på för att zooma ut; eller på de gröna pilarna för angränsande kartor.


METAR-TAF: